createdAt,value
2023-02-11T00:00:12.075Z,6.80
2023-02-11T00:02:15.072Z,6.80
2023-02-11T00:04:17.786Z,6.80
2023-02-11T00:06:21.285Z,6.80
2023-02-11T00:08:23.923Z,6.80
2023-02-11T00:10:26.428Z,6.80
2023-02-11T00:12:29.028Z,6.80
2023-02-11T00:14:31.695Z,6.70
2023-02-11T00:16:35.331Z,6.80
2023-02-11T00:18:37.987Z,6.70
2023-02-11T00:20:41.188Z,6.80
2023-02-11T00:22:43.658Z,6.80
2023-02-11T00:24:46.292Z,6.70
2023-02-11T00:26:48.757Z,6.70
2023-02-11T00:28:51.665Z,6.70
2023-02-11T00:30:57.425Z,6.60
2023-02-11T00:33:00.049Z,6.60
2023-02-11T00:35:02.843Z,6.60
2023-02-11T00:37:05.508Z,6.40
2023-02-11T00:39:08.631Z,6.60
2023-02-11T00:41:12.637Z,6.70
2023-02-11T00:43:15.287Z,6.70
2023-02-11T00:45:18.401Z,6.70
2023-02-11T00:47:21.029Z,6.60
2023-02-11T00:49:24.730Z,6.70
2023-02-11T00:51:28.286Z,6.70
2023-02-11T00:53:32.374Z,6.70
2023-02-11T00:55:34.991Z,6.70
2023-02-11T00:57:37.493Z,6.70
2023-02-11T00:59:40.618Z,6.70
2023-02-11T01:01:43.177Z,6.60
2023-02-11T01:03:45.897Z,6.60
2023-02-11T01:05:49.800Z,6.70
2023-02-11T01:07:52.677Z,6.70
2023-02-11T01:09:55.268Z,6.70
2023-02-11T01:11:57.945Z,6.60
2023-02-11T01:14:00.511Z,6.70
2023-02-11T01:16:03.298Z,6.70
2023-02-11T01:18:06.380Z,6.70
2023-02-11T01:20:13.252Z,6.70
2023-02-11T01:22:15.742Z,6.70
2023-02-11T01:24:18.314Z,6.70
2023-02-11T01:26:21.072Z,6.70
2023-02-11T01:28:24.330Z,6.70
2023-02-11T01:30:27.989Z,6.70
2023-02-11T01:32:30.487Z,6.70
2023-02-11T01:34:33.028Z,6.70
2023-02-11T01:36:35.542Z,6.70
2023-02-11T01:38:40.076Z,6.70
2023-02-11T01:40:47.174Z,6.70
2023-02-11T01:42:51.154Z,6.70
2023-02-11T01:44:54.895Z,6.70
2023-02-11T01:46:57.812Z,6.70
2023-02-11T01:49:02.384Z,6.70
2023-02-11T01:51:06.773Z,6.70
2023-02-11T01:53:29.948Z,6.70
2023-02-11T01:55:50.626Z,6.70
2023-02-11T01:57:56.106Z,6.60
2023-02-11T02:00:10.607Z,6.60
2023-02-11T02:02:16.770Z,6.70
2023-02-11T02:04:19.837Z,6.60
2023-02-11T02:06:25.202Z,6.60
2023-02-11T02:08:30.461Z,6.60
2023-02-11T02:10:34.138Z,6.60
2023-02-11T02:12:36.836Z,6.70
2023-02-11T02:14:40.272Z,6.60
2023-02-11T02:16:42.903Z,6.60
2023-02-11T02:18:48.618Z,6.60
2023-02-11T02:21:08.923Z,6.60
2023-02-11T02:23:20.575Z,6.60
2023-02-11T02:25:36.362Z,6.60
2023-02-11T02:27:45.274Z,6.70
2023-02-11T02:30:07.015Z,6.70
2023-02-11T02:32:44.491Z,6.60
2023-02-11T02:37:07.318Z,6.70
2023-02-11T02:39:11.629Z,6.70
2023-02-11T02:41:15.507Z,6.70
2023-02-11T02:43:18.718Z,6.70
2023-02-11T02:45:24.017Z,6.70
2023-02-11T02:47:27.102Z,6.70
2023-02-11T02:49:29.622Z,6.70
2023-02-11T02:51:52.098Z,6.70
2023-02-11T02:53:57.658Z,6.70
2023-02-11T02:56:02.948Z,6.70
2023-02-11T02:58:13.875Z,6.70
2023-02-11T03:00:20.350Z,6.70
2023-02-11T03:02:24.727Z,6.70
2023-02-11T03:04:29.291Z,6.70
2023-02-11T03:06:33.675Z,6.70
2023-02-11T03:08:38.032Z,6.70
2023-02-11T03:10:43.020Z,6.70
2023-02-11T03:12:46.956Z,6.70
2023-02-11T03:14:51.266Z,6.70
2023-02-11T03:16:55.196Z,6.70
2023-02-11T03:18:59.507Z,6.70
2023-02-11T03:21:02.606Z,6.70
2023-02-11T03:23:07.931Z,6.60
2023-02-11T03:25:10.416Z,6.70
2023-02-11T03:27:15.194Z,6.70
2023-02-11T03:29:19.557Z,6.60
2023-02-11T03:31:24.363Z,6.70
2023-02-11T03:33:28.931Z,6.70
2023-02-11T03:35:33.027Z,6.70
2023-02-11T03:37:39.144Z,6.60
2023-02-11T03:39:43.447Z,6.60
2023-02-11T03:41:47.825Z,6.60
2023-02-11T03:43:51.827Z,6.60
2023-02-11T03:45:55.321Z,6.60
2023-02-11T03:48:00.163Z,6.60
2023-02-11T03:50:04.582Z,6.60
2023-02-11T03:52:09.753Z,6.60
2023-02-11T03:54:14.154Z,6.60
2023-02-11T03:56:17.952Z,6.60
2023-02-11T03:58:20.623Z,6.60
2023-02-11T04:00:25.751Z,6.50
2023-02-11T04:02:30.090Z,6.60
2023-02-11T04:04:32.585Z,6.60
2023-02-11T04:06:35.082Z,6.50
2023-02-11T04:08:37.567Z,6.50
2023-02-11T04:10:40.035Z,6.60
2023-02-11T04:12:42.646Z,6.60
2023-02-11T04:14:45.476Z,6.50
2023-02-11T04:16:47.971Z,6.50
2023-02-11T04:18:50.655Z,6.50
2023-02-11T04:20:53.127Z,6.60
2023-02-11T04:22:55.603Z,6.50
2023-02-11T04:24:58.111Z,6.50
2023-02-11T04:27:00.620Z,6.40
2023-02-11T04:29:03.328Z,6.50
2023-02-11T04:31:06.137Z,6.50
2023-02-11T04:33:08.559Z,6.50
2023-02-11T04:35:11.031Z,6.50
2023-02-11T04:37:13.644Z,6.50
2023-02-11T04:39:16.127Z,6.40
2023-02-11T04:41:18.780Z,6.50
2023-02-11T04:43:21.455Z,6.50
2023-02-11T04:45:24.242Z,6.50
2023-02-11T04:47:26.820Z,6.50
2023-02-11T04:49:29.621Z,6.40
2023-02-11T04:51:32.109Z,6.40
2023-02-11T04:53:34.586Z,6.40
2023-02-11T04:55:37.172Z,6.30
2023-02-11T04:57:39.677Z,6.40
2023-02-11T04:59:42.368Z,6.40
2023-02-11T05:01:44.964Z,6.30
2023-02-11T05:03:47.475Z,6.30
2023-02-11T05:05:50.830Z,6.30
2023-02-11T05:07:53.675Z,6.30
2023-02-11T05:09:56.153Z,6.30
2023-02-11T05:11:58.650Z,6.30
2023-02-11T05:14:01.198Z,6.30
2023-02-11T05:16:04.406Z,6.20
2023-02-11T05:18:06.900Z,6.20
2023-02-11T05:20:11.012Z,6.20
2023-02-11T05:22:13.552Z,6.10
2023-02-11T05:24:16.003Z,5.50
2023-02-11T05:26:18.587Z,6.10
2023-02-11T05:28:21.130Z,6.10
2023-02-11T05:30:23.864Z,6.10
2023-02-11T05:32:27.776Z,6.10
2023-02-11T05:34:30.245Z,6.00
2023-02-11T05:36:33.520Z,6.10
2023-02-11T05:38:36.750Z,6.10
2023-02-11T05:40:39.261Z,6.00
2023-02-11T05:42:41.774Z,6.10
2023-02-11T05:44:44.245Z,6.00
2023-02-11T05:46:46.934Z,6.00
2023-02-11T05:48:49.554Z,5.90
2023-02-11T05:50:51.999Z,6.00
2023-02-11T05:52:54.517Z,6.00
2023-02-11T05:54:57.428Z,6.00
2023-02-11T05:56:59.978Z,6.00
2023-02-11T05:59:02.459Z,6.00
2023-02-11T06:01:05.144Z,6.00
2023-02-11T06:03:07.680Z,6.00
2023-02-11T06:05:10.172Z,6.00
2023-02-11T06:07:12.848Z,6.00
2023-02-11T06:09:15.357Z,6.00
2023-02-11T06:11:18.076Z,6.00
2023-02-11T06:13:20.598Z,5.90
2023-02-11T06:15:23.091Z,6.00
2023-02-11T06:17:25.714Z,6.00
2023-02-11T06:19:28.290Z,6.00
2023-02-11T06:21:43.010Z,5.90
2023-02-11T06:23:35.567Z,6.00
2023-02-11T06:25:38.037Z,6.00
2023-02-11T06:27:40.516Z,6.00
2023-02-11T06:29:43.055Z,6.00
2023-02-11T06:31:45.639Z,6.00
2023-02-11T06:33:50.038Z,6.00
2023-02-11T06:35:52.857Z,6.00
2023-02-11T06:37:55.590Z,6.00
2023-02-11T06:39:58.144Z,6.00
2023-02-11T06:42:00.684Z,6.00
2023-02-11T06:44:03.407Z,6.00
2023-02-11T06:46:06.365Z,6.00
2023-02-11T06:48:08.956Z,6.00
2023-02-11T06:50:12.851Z,6.00
2023-02-11T06:52:15.377Z,6.00
2023-02-11T06:54:17.856Z,6.00
2023-02-11T06:56:21.189Z,6.10
2023-02-11T06:58:23.696Z,6.10
2023-02-11T07:00:26.252Z,6.10
2023-02-11T07:02:28.759Z,6.00
2023-02-11T07:04:31.364Z,6.10
2023-02-11T07:06:34.262Z,6.00
2023-02-11T07:08:37.675Z,6.10
2023-02-11T07:10:40.216Z,6.10
2023-02-11T07:12:42.707Z,6.10
2023-02-11T07:14:45.265Z,6.10
2023-02-11T07:16:47.756Z,6.10
2023-02-11T07:18:50.224Z,6.10
2023-02-11T07:20:52.729Z,6.10
2023-02-11T07:22:55.268Z,6.10
2023-02-11T07:24:57.765Z,6.10
2023-02-11T07:27:00.239Z,6.10
2023-02-11T07:29:03.150Z,6.20
2023-02-11T07:31:07.432Z,6.20
2023-02-11T07:33:10.280Z,6.20
2023-02-11T07:35:12.791Z,6.20
2023-02-11T07:37:15.286Z,6.20
2023-02-11T07:39:19.596Z,6.20
2023-02-11T07:41:23.202Z,6.20
2023-02-11T07:43:25.707Z,6.20
2023-02-11T07:45:28.376Z,6.20
2023-02-11T07:47:30.923Z,6.20
2023-02-11T07:49:33.384Z,6.20
2023-02-11T07:51:35.915Z,6.20
2023-02-11T07:53:38.543Z,6.20
2023-02-11T07:55:42.452Z,6.20
2023-02-11T07:57:45.038Z,6.20
2023-02-11T07:59:47.553Z,6.30
2023-02-11T08:01:50.861Z,6.20
2023-02-11T08:03:54.013Z,6.20
2023-02-11T08:05:56.588Z,6.30
2023-02-11T08:07:59.091Z,6.30
2023-02-11T08:10:01.614Z,6.30
2023-02-11T08:12:04.528Z,6.30
2023-02-11T08:14:06.992Z,6.30
2023-02-11T08:16:09.578Z,6.30
2023-02-11T08:18:12.129Z,6.30
2023-02-11T08:20:15.106Z,6.30
2023-02-11T08:22:17.664Z,6.30
2023-02-11T08:24:20.155Z,6.30
2023-02-11T08:26:23.855Z,6.30
2023-02-11T08:28:26.396Z,6.40
2023-02-11T08:30:29.068Z,6.40
2023-02-11T08:32:31.549Z,6.40
2023-02-11T08:34:34.150Z,6.40
2023-02-11T08:36:37.958Z,6.40
2023-02-11T08:38:40.569Z,6.40
2023-02-11T08:40:43.067Z,6.40
2023-02-11T08:42:45.576Z,6.50
2023-02-11T08:44:48.184Z,6.50
2023-02-11T08:46:50.760Z,6.50
2023-02-11T08:48:53.643Z,6.70
2023-02-11T08:50:56.128Z,6.40
2023-02-11T08:52:58.643Z,6.40
2023-02-11T08:55:01.140Z,6.40
2023-02-11T08:57:03.957Z,6.50
2023-02-11T08:59:06.959Z,6.50
2023-02-11T09:01:10.597Z,6.50
2023-02-11T09:03:13.564Z,6.50
2023-02-11T09:05:16.115Z,6.50
2023-02-11T09:07:18.614Z,6.60
2023-02-11T09:09:21.654Z,6.50
2023-02-11T09:11:26.762Z,6.60
2023-02-11T09:13:29.271Z,6.70
2023-02-11T09:15:31.813Z,6.70
2023-02-11T09:17:34.324Z,6.70
2023-02-11T09:19:36.808Z,6.70
2023-02-11T09:21:39.317Z,6.70
2023-02-11T09:23:43.934Z,6.70
2023-02-11T09:25:46.518Z,6.70
2023-02-11T09:27:49.253Z,6.70
2023-02-11T09:29:51.764Z,6.80
2023-02-11T09:31:56.234Z,6.80
2023-02-11T09:33:59.873Z,6.80
2023-02-11T09:36:02.364Z,6.80
2023-02-11T09:38:04.902Z,6.90
2023-02-11T09:40:08.584Z,6.90
2023-02-11T09:42:21.449Z,6.90
2023-02-11T09:44:24.856Z,7.00
2023-02-11T09:46:29.181Z,7.00
2023-02-11T09:48:32.854Z,7.00
2023-02-11T09:50:36.691Z,7.10
2023-02-11T09:52:41.281Z,7.10
2023-02-11T09:54:45.964Z,7.10
2023-02-11T09:56:48.461Z,7.10
2023-02-11T09:58:51.043Z,7.10
2023-02-11T10:00:55.401Z,7.10
2023-02-11T10:03:01.191Z,7.20
2023-02-11T10:05:11.332Z,7.20
2023-02-11T10:07:16.508Z,7.20
2023-02-11T10:09:41.055Z,7.20
2023-02-11T10:11:46.116Z,7.20
2023-02-11T10:13:51.514Z,7.30
2023-02-11T10:15:56.478Z,8.00
2023-02-11T10:18:02.350Z,7.30
2023-02-11T10:20:09.853Z,7.30
2023-02-11T10:22:14.684Z,7.40
2023-02-11T10:24:17.529Z,7.30
2023-02-11T10:26:20.348Z,7.40
2023-02-11T10:28:24.554Z,7.40
2023-02-11T10:30:29.182Z,7.40
2023-02-11T10:32:34.034Z,7.40
2023-02-11T10:34:40.318Z,7.40
2023-02-11T10:36:43.989Z,7.40
2023-02-11T10:38:46.511Z,7.40
2023-02-11T10:40:49.448Z,7.40
2023-02-11T10:42:55.606Z,7.50
2023-02-11T10:45:00.253Z,7.50
2023-02-11T10:47:11.139Z,7.50
2023-02-11T10:49:17.109Z,7.60
2023-02-11T10:51:21.322Z,7.60
2023-02-11T10:53:23.866Z,7.60
2023-02-11T10:55:28.139Z,7.60
2023-02-11T10:57:33.056Z,7.60
2023-02-11T10:59:38.073Z,7.60
2023-02-11T11:01:42.335Z,7.60
2023-02-11T11:03:47.302Z,7.60
2023-02-11T11:05:50.931Z,7.70
2023-02-11T11:07:55.271Z,7.70
2023-02-11T11:10:02.738Z,7.70
2023-02-11T11:12:05.901Z,7.70
2023-02-11T11:14:10.520Z,7.70
2023-02-11T11:16:17.577Z,8.20
2023-02-11T11:18:23.247Z,7.90
2023-02-11T11:20:27.694Z,7.90
2023-02-11T11:22:30.572Z,7.90
2023-02-11T11:24:38.338Z,7.90
2023-02-11T11:26:42.337Z,7.90
2023-02-11T11:28:52.204Z,7.90
2023-02-11T11:30:55.853Z,8.30
2023-02-11T11:32:58.805Z,7.90
2023-02-11T11:35:03.254Z,7.90
2023-02-11T11:37:12.250Z,7.90
2023-02-11T11:39:22.380Z,7.90
2023-02-11T11:41:26.515Z,7.90
2023-02-11T11:43:28.967Z,7.90
2023-02-11T11:45:32.530Z,7.90
2023-02-11T11:47:38.366Z,7.90
2023-02-11T11:49:42.736Z,7.90
2023-02-11T11:51:47.748Z,7.90
2023-02-11T11:53:53.124Z,7.90
2023-02-11T11:55:59.746Z,7.90
2023-02-11T11:58:02.257Z,7.90
2023-02-11T12:00:06.441Z,7.90
2023-02-11T12:02:15.915Z,7.90
2023-02-11T12:04:37.605Z,7.90
2023-02-11T12:06:42.116Z,7.90
2023-02-11T12:08:46.832Z,7.90
2023-02-11T12:10:53.990Z,8.00
2023-02-11T12:12:58.875Z,8.00
2023-02-11T12:15:05.612Z,7.90
2023-02-11T12:17:10.056Z,7.90
2023-02-11T12:19:44.010Z,8.00
2023-02-11T12:24:08.839Z,8.00
2023-02-11T12:26:14.018Z,8.00
2023-02-11T12:28:23.216Z,8.00
2023-02-11T12:30:31.162Z,8.00
2023-02-11T12:32:36.041Z,8.10
2023-02-11T12:34:42.765Z,8.10
2023-02-11T12:36:50.470Z,8.60
2023-02-11T12:38:57.199Z,8.10
2023-02-11T12:41:04.169Z,8.10
2023-02-11T12:43:16.021Z,8.10
2023-02-11T12:45:22.111Z,8.20
2023-02-11T12:47:27.446Z,8.20
2023-02-11T12:49:37.616Z,8.20
2023-02-11T12:51:43.134Z,8.20
2023-02-11T12:53:51.586Z,8.20
2023-02-11T12:55:57.373Z,8.20
2023-02-11T12:58:00.367Z,8.20
2023-02-11T13:00:05.376Z,8.20
2023-02-11T13:02:13.963Z,8.30
2023-02-11T13:04:18.447Z,8.30
2023-02-11T13:06:22.707Z,8.40
2023-02-11T13:08:27.559Z,8.40
2023-02-11T13:10:32.519Z,8.50
2023-02-11T13:12:54.793Z,8.60
2023-02-11T13:14:59.171Z,8.60
2023-02-11T13:17:03.461Z,8.60
2023-02-11T13:19:09.544Z,8.50
2023-02-11T13:21:34.573Z,8.50
2023-02-11T13:23:39.596Z,8.50
2023-02-11T13:25:45.249Z,8.50
2023-02-11T13:27:50.383Z,8.60
2023-02-11T13:30:12.550Z,8.60
2023-02-11T13:32:15.597Z,8.60
2023-02-11T13:34:25.583Z,8.60
2023-02-11T13:36:29.632Z,8.60
2023-02-11T13:38:32.645Z,8.60
2023-02-11T13:40:36.066Z,8.60
2023-02-11T13:42:46.698Z,8.50
2023-02-11T13:44:50.052Z,8.60
2023-02-11T13:47:00.687Z,8.60
2023-02-11T13:49:03.343Z,8.60
2023-02-11T13:51:08.309Z,8.60
2023-02-11T13:53:10.903Z,8.60
2023-02-11T13:55:17.527Z,8.50
2023-02-11T13:57:27.597Z,8.60
2023-02-11T13:59:47.314Z,8.60
2023-02-11T14:02:30.122Z,8.60
2023-02-11T14:04:51.485Z,8.70
2023-02-11T14:07:36.970Z,8.70
2023-02-11T14:09:40.027Z,8.70
2023-02-11T14:11:49.681Z,8.70
2023-02-11T14:14:23.644Z,8.70
2023-02-11T14:19:01.269Z,8.70
2023-02-11T14:21:09.339Z,8.70
2023-02-11T14:23:23.927Z,8.70
2023-02-11T14:25:26.692Z,8.70
2023-02-11T14:27:32.123Z,8.70
2023-02-11T14:29:37.110Z,8.70
2023-02-11T14:31:42.593Z,8.80
2023-02-11T14:33:53.026Z,8.80
2023-02-11T14:36:03.163Z,8.80
2023-02-11T14:38:07.553Z,8.90
2023-02-11T14:40:13.149Z,8.80
2023-02-11T14:42:19.544Z,8.80
2023-02-11T14:44:23.928Z,8.80
2023-02-11T14:46:29.292Z,8.80
2023-02-11T14:48:34.497Z,8.80
2023-02-11T14:50:39.282Z,8.80
2023-02-11T14:52:43.203Z,8.80
2023-02-11T14:54:47.518Z,8.70
2023-02-11T14:57:05.579Z,8.80
2023-02-11T14:59:15.546Z,8.80
2023-02-11T15:01:27.070Z,8.80
2023-02-11T15:03:31.718Z,8.80
2023-02-11T15:05:34.620Z,8.80
2023-02-11T15:07:37.152Z,8.70
2023-02-11T15:09:41.014Z,8.70
2023-02-11T15:11:44.525Z,8.70
2023-02-11T15:13:47.551Z,8.70
2023-02-11T15:15:52.053Z,8.70
2023-02-11T15:17:58.977Z,8.70
2023-02-11T15:20:01.991Z,8.80
2023-02-11T15:22:06.059Z,8.80
2023-02-11T15:24:21.459Z,8.80
2023-02-11T15:26:24.054Z,8.70
2023-02-11T15:28:29.469Z,8.70
2023-02-11T15:30:33.904Z,8.70
2023-02-11T15:32:38.221Z,8.80
2023-02-11T15:34:41.288Z,8.80
2023-02-11T15:36:45.900Z,8.70
2023-02-11T15:39:07.751Z,8.70
2023-02-11T15:41:30.252Z,8.70
2023-02-11T15:43:42.749Z,8.80
2023-02-11T15:45:48.960Z,8.70
2023-02-11T15:47:56.088Z,8.80
2023-02-11T15:49:59.469Z,8.80
2023-02-11T15:52:02.796Z,8.80
2023-02-11T15:54:07.569Z,8.80
2023-02-11T15:56:12.582Z,8.80
2023-02-11T15:58:17.203Z,8.80
2023-02-11T16:00:25.029Z,8.80
2023-02-11T16:02:31.957Z,8.80
2023-02-11T16:04:38.975Z,8.70
2023-02-11T16:06:46.216Z,8.70
2023-02-11T16:09:01.938Z,8.80
2023-02-11T16:11:09.214Z,8.70
2023-02-11T16:13:19.458Z,8.70
2023-02-11T16:15:44.702Z,8.70
2023-02-11T16:17:47.340Z,8.70
2023-02-11T16:19:50.938Z,8.60
2023-02-11T16:21:53.985Z,8.60
2023-02-11T16:23:57.536Z,8.60
2023-02-11T16:26:04.334Z,8.70
2023-02-11T16:28:11.532Z,8.60
2023-02-11T16:30:25.166Z,8.60
2023-02-11T16:32:32.257Z,8.60
2023-02-11T16:34:38.721Z,8.50
2023-02-11T16:36:44.666Z,8.60
2023-02-11T16:38:50.325Z,8.50
2023-02-11T16:40:55.987Z,8.50
2023-02-11T16:43:02.046Z,8.50
2023-02-11T16:45:09.028Z,8.50
2023-02-11T16:47:16.850Z,8.50
2023-02-11T16:49:25.422Z,8.50
2023-02-11T16:51:38.838Z,8.50
2023-02-11T16:53:42.294Z,8.50
2023-02-11T16:55:45.369Z,8.50
2023-02-11T16:57:48.627Z,8.40
2023-02-11T16:59:51.255Z,8.40
2023-02-11T17:01:54.610Z,8.40
2023-02-11T17:03:57.117Z,8.50
2023-02-11T17:06:01.755Z,8.40
2023-02-11T17:08:05.894Z,8.40
2023-02-11T17:10:13.746Z,8.40
2023-02-11T17:12:16.211Z,8.40
2023-02-11T17:14:19.059Z,8.40
2023-02-11T17:16:22.347Z,8.40
2023-02-11T17:18:25.094Z,8.50
2023-02-11T17:20:27.908Z,8.50
2023-02-11T17:22:30.392Z,8.40
2023-02-11T17:24:32.924Z,8.40
2023-02-11T17:26:36.300Z,8.40
2023-02-11T17:28:38.892Z,8.50
2023-02-11T17:30:43.085Z,8.40
2023-02-11T17:32:46.728Z,8.40
2023-02-11T17:34:49.192Z,8.40
2023-02-11T17:36:55.014Z,8.40
2023-02-11T17:39:00.878Z,8.40
2023-02-11T17:41:07.170Z,8.40
2023-02-11T17:43:13.843Z,8.40
2023-02-11T17:45:21.195Z,8.40
2023-02-11T17:47:26.653Z,8.40
2023-02-11T17:49:32.196Z,8.50
2023-02-11T17:51:36.161Z,8.40
2023-02-11T17:53:39.612Z,8.40
2023-02-11T17:55:43.185Z,8.40
2023-02-11T17:57:47.111Z,8.40
2023-02-11T17:59:51.431Z,8.50
2023-02-11T18:01:54.717Z,8.50
2023-02-11T18:03:58.358Z,8.50
2023-02-11T18:06:02.308Z,8.50
2023-02-11T18:08:06.941Z,8.50
2023-02-11T18:10:11.192Z,8.50
2023-02-11T18:12:13.905Z,8.50
2023-02-11T18:14:16.529Z,8.50
2023-02-11T18:16:19.268Z,8.50
2023-02-11T18:18:21.883Z,8.50
2023-02-11T18:20:24.630Z,8.50
2023-02-11T18:22:27.143Z,8.50
2023-02-11T18:24:29.688Z,8.50
2023-02-11T18:26:32.294Z,8.40
2023-02-11T18:28:34.963Z,8.50
2023-02-11T18:30:37.628Z,8.50
2023-02-11T18:32:40.161Z,8.40
2023-02-11T18:34:42.721Z,8.40
2023-02-11T18:36:45.175Z,8.50
2023-02-11T18:38:47.705Z,8.40
2023-02-11T18:40:51.764Z,8.50
2023-02-11T18:42:54.318Z,8.50
2023-02-11T18:44:56.840Z,8.40
2023-02-11T18:46:59.536Z,8.40
2023-02-11T18:49:04.038Z,8.40
2023-02-11T18:51:09.115Z,8.50
2023-02-11T18:53:12.430Z,8.40
2023-02-11T18:55:21.931Z,8.40
2023-02-11T18:57:24.234Z,8.40
2023-02-11T18:59:30.203Z,8.40
2023-02-11T19:01:36.832Z,8.40
2023-02-11T19:03:43.577Z,8.40
2023-02-11T19:05:51.524Z,8.40
2023-02-11T19:07:57.310Z,8.40
2023-02-11T19:10:03.493Z,8.50
2023-02-11T19:12:10.285Z,8.40
2023-02-11T19:14:17.452Z,8.40
2023-02-11T19:16:23.362Z,8.40
2023-02-11T19:18:26.826Z,8.50
2023-02-11T19:20:31.202Z,8.40
2023-02-11T19:22:41.061Z,8.40
2023-02-11T19:24:47.274Z,8.40
2023-02-11T19:26:54.576Z,8.40
2023-02-11T19:29:00.516Z,8.40
2023-02-11T19:31:13.413Z,8.40
2023-02-11T19:33:21.174Z,8.40
2023-02-11T19:35:29.584Z,8.40
2023-02-11T19:37:40.202Z,8.40
2023-02-11T19:39:44.435Z,8.40
2023-02-11T19:41:47.560Z,8.40
2023-02-11T19:43:52.941Z,8.40
2023-02-11T19:45:57.280Z,8.40
2023-02-11T19:48:09.840Z,8.40
2023-02-11T19:50:15.098Z,8.40
2023-02-11T19:52:22.237Z,8.30
2023-02-11T19:54:31.682Z,8.40
2023-02-11T19:56:38.219Z,8.30
2023-02-11T19:58:47.031Z,8.30
2023-02-11T20:00:54.640Z,8.30
2023-02-11T20:02:57.755Z,8.30
2023-02-11T20:05:00.291Z,8.40
2023-02-11T20:07:02.793Z,8.40
2023-02-11T20:09:06.918Z,8.40
2023-02-11T20:11:10.328Z,8.40
2023-02-11T20:13:12.845Z,8.30
2023-02-11T20:15:15.352Z,8.40
2023-02-11T20:17:18.036Z,8.30
2023-02-11T20:19:25.289Z,8.30
2023-02-11T20:21:29.715Z,8.30
2023-02-11T20:23:43.205Z,8.40
2023-02-11T20:25:51.875Z,8.30
2023-02-11T20:27:55.207Z,8.40
2023-02-11T20:29:57.812Z,8.30
2023-02-11T20:32:00.555Z,8.40
2023-02-11T20:34:03.731Z,8.40
2023-02-11T20:36:09.109Z,8.40
2023-02-11T20:38:14.627Z,8.40
2023-02-11T20:40:21.093Z,8.40
2023-02-11T20:42:25.352Z,8.40
2023-02-11T20:44:28.898Z,8.40
2023-02-11T20:46:32.865Z,8.40
2023-02-11T20:48:40.113Z,8.40
2023-02-11T20:50:43.095Z,8.40
2023-02-11T20:52:47.726Z,8.40
2023-02-11T20:54:50.576Z,8.30
2023-02-11T20:56:54.023Z,8.30
2023-02-11T20:58:57.832Z,8.40
2023-02-11T21:01:10.787Z,8.40
2023-02-11T21:03:13.787Z,8.40
2023-02-11T21:05:16.507Z,8.30
2023-02-11T21:07:19.054Z,8.40
2023-02-11T21:09:23.089Z,8.40
2023-02-11T21:11:25.600Z,8.40
2023-02-11T21:13:28.358Z,8.40
2023-02-11T21:15:31.080Z,8.40
2023-02-11T21:17:33.873Z,8.40
2023-02-11T21:19:36.706Z,8.40
2023-02-11T21:21:39.178Z,8.40
2023-02-11T21:23:41.760Z,8.40
2023-02-11T21:25:44.254Z,8.40
2023-02-11T21:27:46.854Z,8.40
2023-02-11T21:29:54.572Z,8.30
2023-02-11T21:31:53.786Z,8.30
2023-02-11T21:33:56.633Z,8.40
2023-02-11T21:36:00.050Z,8.30
2023-02-11T21:38:02.920Z,8.30
2023-02-11T21:40:23.209Z,8.30
2023-02-11T21:42:26.021Z,8.40
2023-02-11T21:44:28.575Z,8.40
2023-02-11T21:46:31.445Z,8.30
2023-02-11T21:48:34.039Z,8.40
2023-02-11T21:50:38.953Z,8.40
2023-02-11T21:52:41.666Z,8.40
2023-02-11T21:54:44.274Z,8.30
2023-02-11T21:56:48.527Z,8.40
2023-02-11T21:58:52.869Z,8.40
2023-02-11T22:00:55.414Z,8.40
2023-02-11T22:02:57.970Z,8.30
2023-02-11T22:05:00.935Z,8.30
2023-02-11T22:07:03.435Z,8.30
2023-02-11T22:09:07.153Z,8.40
2023-02-11T22:11:10.510Z,8.30
2023-02-11T22:13:13.003Z,8.40
2023-02-11T22:15:15.607Z,8.30
2023-02-11T22:17:18.168Z,8.30
2023-02-11T22:19:20.901Z,8.30
2023-02-11T22:21:24.060Z,8.30
2023-02-11T22:23:26.722Z,8.40
2023-02-11T22:25:29.310Z,8.40
2023-02-11T22:27:31.824Z,8.30
2023-02-11T22:29:34.353Z,8.40
2023-02-11T22:31:36.880Z,8.40
2023-02-11T22:33:39.492Z,8.40
2023-02-11T22:35:42.098Z,8.40
2023-02-11T22:37:44.596Z,8.40
2023-02-11T22:39:47.311Z,8.40
2023-02-11T22:41:49.900Z,8.40
2023-02-11T22:43:52.598Z,8.40
2023-02-11T22:45:56.101Z,8.40
2023-02-11T22:47:59.433Z,8.40
2023-02-11T22:50:02.088Z,8.40
2023-02-11T22:52:05.251Z,8.40
2023-02-11T22:54:21.127Z,8.50
2023-02-11T22:56:24.416Z,8.40
2023-02-11T22:58:26.996Z,8.40
2023-02-11T23:00:31.010Z,8.50
2023-02-11T23:02:35.379Z,8.50
2023-02-11T23:04:38.881Z,8.40
2023-02-11T23:06:43.961Z,8.40
2023-02-11T23:08:49.157Z,8.40
2023-02-11T23:10:52.492Z,8.40
2023-02-11T23:12:56.679Z,8.40
2023-02-11T23:15:02.612Z,8.40
2023-02-11T23:17:07.715Z,8.40
2023-02-11T23:19:12.193Z,8.50
2023-02-11T23:21:18.027Z,8.50
2023-02-11T23:23:22.701Z,8.30
2023-02-11T23:25:26.081Z,8.50
2023-02-11T23:27:29.798Z,8.50
2023-02-11T23:29:32.688Z,8.40
2023-02-11T23:31:38.966Z,8.40
2023-02-11T23:33:41.561Z,8.40
2023-02-11T23:35:45.008Z,8.40
2023-02-11T23:37:47.483Z,8.40
2023-02-11T23:39:50.143Z,8.40
2023-02-11T23:41:54.576Z,8.40
2023-02-11T23:43:57.597Z,8.50
2023-02-11T23:46:00.302Z,8.50
2023-02-11T23:48:02.976Z,8.40
2023-02-11T23:50:06.758Z,8.40
2023-02-11T23:52:09.266Z,8.50
2023-02-11T23:54:13.201Z,8.40
2023-02-11T23:56:17.706Z,8.40
2023-02-11T23:58:20.313Z,8.40
